createdAt,value
2018-12-22T00:02:17.539Z,38.63
2018-12-22T00:04:46.429Z,36.23
2018-12-22T00:07:15.202Z,38.23
2018-12-22T00:09:44.006Z,34.00
2018-12-22T00:12:12.785Z,39.80
2018-12-22T00:14:41.603Z,37.10
2018-12-22T00:17:10.489Z,36.80
2018-12-22T00:19:39.305Z,31.87
2018-12-22T00:22:08.154Z,31.85
2018-12-22T00:24:36.957Z,33.35
2018-12-22T00:27:05.726Z,35.08
2018-12-22T00:29:34.519Z,40.33
2018-12-22T00:32:03.492Z,35.43
2018-12-22T00:34:32.699Z,33.02
2018-12-22T00:37:01.446Z,40.08
2018-12-22T00:39:30.245Z,38.38
2018-12-22T00:41:59.056Z,37.95
2018-12-22T00:44:27.854Z,37.13
2018-12-22T00:46:56.750Z,38.28
2018-12-22T00:49:25.554Z,36.70
2018-12-22T00:51:54.338Z,42.83
2018-12-22T00:54:23.606Z,36.83
2018-12-22T00:56:52.389Z,37.20
2018-12-22T00:59:21.199Z,35.65
2018-12-22T01:01:50.114Z,36.90
2018-12-22T01:04:18.898Z,34.23
2018-12-22T01:06:47.712Z,40.03
2018-12-22T01:09:16.502Z,38.45
2018-12-22T01:11:45.282Z,43.15
2018-12-22T01:14:14.074Z,36.30
2018-12-22T01:16:44.798Z,35.78
2018-12-22T01:19:13.844Z,42.33
2018-12-22T01:21:42.665Z,41.83
2018-12-22T01:24:11.465Z,38.30
2018-12-22T01:26:40.319Z,37.07
2018-12-22T01:29:09.183Z,44.63
2018-12-22T01:31:37.983Z,39.20
2018-12-22T01:34:06.851Z,38.92
2018-12-22T01:36:35.734Z,39.83
2018-12-22T01:39:06.366Z,39.67
2018-12-22T01:41:35.221Z,41.48
2018-12-22T01:44:04.217Z,43.55
2018-12-22T01:46:33.071Z,41.42
2018-12-22T01:49:01.946Z,33.75
2018-12-22T01:51:30.866Z,41.13
2018-12-22T01:53:59.790Z,43.50
2018-12-22T01:56:28.668Z,40.85
2018-12-22T01:58:57.527Z,44.88
2018-12-22T02:01:26.439Z,41.77
2018-12-22T02:03:55.205Z,42.98
2018-12-22T02:06:24.090Z,39.50
2018-12-22T02:08:52.963Z,45.12
2018-12-22T02:11:21.743Z,43.38
2018-12-22T02:13:50.514Z,35.75
2018-12-22T02:16:20.352Z,38.73
2018-12-22T02:18:49.139Z,36.55
2018-12-22T02:21:17.926Z,33.07
2018-12-22T02:23:46.813Z,41.83
2018-12-22T02:26:15.643Z,39.73
2018-12-22T02:28:45.342Z,33.65
2018-12-22T02:31:15.179Z,34.80
2018-12-22T02:33:44.095Z,34.63
2018-12-22T02:36:12.894Z,33.23
2018-12-22T02:38:41.654Z,35.03
2018-12-22T02:41:10.441Z,32.63
2018-12-22T02:43:39.234Z,35.63
2018-12-22T02:46:08.022Z,34.45
2018-12-22T02:48:36.879Z,31.83
2018-12-22T02:51:05.655Z,33.20
2018-12-22T02:53:34.459Z,31.57
2018-12-22T02:56:03.246Z,37.67
2018-12-22T02:58:32.081Z,30.27
2018-12-22T03:01:00.885Z,32.28
2018-12-22T03:03:29.921Z,36.30
2018-12-22T03:05:58.788Z,31.12
2018-12-22T03:08:27.579Z,30.47
2018-12-22T03:10:56.457Z,35.13
2018-12-22T03:13:25.383Z,29.82
2018-12-22T03:15:54.238Z,26.85
2018-12-22T03:18:23.066Z,28.27
2018-12-22T03:20:51.863Z,29.63
2018-12-22T03:23:20.723Z,29.45
2018-12-22T03:25:49.599Z,28.77
2018-12-22T03:28:18.422Z,29.57
2018-12-22T03:30:47.228Z,29.07
2018-12-22T03:33:16.043Z,30.52
2018-12-22T03:35:44.905Z,30.40
2018-12-22T03:38:13.655Z,29.32
2018-12-22T03:40:42.458Z,30.77
2018-12-22T03:43:11.258Z,29.75
2018-12-22T03:45:40.093Z,27.55
2018-12-22T03:48:08.877Z,27.47
2018-12-22T03:50:38.042Z,28.80
2018-12-22T03:53:06.794Z,29.95
2018-12-22T03:55:35.618Z,22.55
2018-12-22T03:58:04.467Z,21.37
2018-12-22T04:00:33.231Z,20.33
2018-12-22T04:03:02.001Z,15.18
2018-12-22T04:05:30.779Z,18.10
2018-12-22T04:07:59.550Z,18.37
2018-12-22T04:10:28.338Z,17.52
2018-12-22T04:12:57.123Z,18.42
2018-12-22T04:15:25.991Z,18.75
2018-12-22T04:17:54.812Z,15.40
2018-12-22T04:20:23.591Z,15.90
2018-12-22T04:22:52.387Z,12.90
2018-12-22T04:25:21.159Z,12.20
2018-12-22T04:27:49.919Z,11.73
2018-12-22T04:30:18.707Z,12.45
2018-12-22T04:32:47.535Z,10.15
2018-12-22T04:35:16.432Z,12.67
2018-12-22T04:37:45.181Z,16.70
2018-12-22T04:40:14.018Z,12.82
2018-12-22T04:42:42.955Z,10.85
2018-12-22T04:45:11.765Z,13.13
2018-12-22T04:47:40.550Z,11.83
2018-12-22T04:50:09.331Z,11.30
2018-12-22T04:52:38.087Z,7.83
2018-12-22T04:55:06.845Z,9.80
2018-12-22T04:57:35.710Z,9.00
2018-12-22T05:00:05.081Z,7.78
2018-12-22T05:02:33.834Z,7.67
2018-12-22T05:05:02.603Z,6.87
2018-12-22T05:07:31.490Z,5.12
2018-12-22T05:10:00.271Z,6.35
2018-12-22T05:12:29.211Z,6.22
2018-12-22T05:14:57.987Z,8.33
2018-12-22T05:17:26.846Z,8.18
2018-12-22T05:19:55.646Z,8.90
2018-12-22T05:22:24.434Z,7.80
2018-12-22T05:24:53.345Z,8.25
2018-12-22T05:27:22.104Z,10.32
2018-12-22T05:29:51.982Z,9.60
2018-12-22T05:32:21.134Z,9.93
2018-12-22T05:34:49.926Z,14.20
2018-12-22T05:37:18.707Z,13.53
2018-12-22T05:39:47.494Z,13.18
2018-12-22T05:42:16.254Z,12.53
2018-12-22T05:44:45.038Z,14.95
2018-12-22T05:47:13.831Z,13.20
2018-12-22T05:49:42.638Z,12.65
2018-12-22T05:52:11.398Z,14.15
2018-12-22T05:54:40.194Z,14.78
2018-12-22T05:57:09.994Z,16.00
2018-12-22T05:59:38.868Z,11.87
2018-12-22T06:02:08.158Z,12.10
2018-12-22T06:04:36.944Z,7.10
2018-12-22T06:07:05.862Z,8.03
2018-12-22T06:09:34.726Z,7.55
2018-12-22T06:12:03.574Z,3.67
2018-12-22T06:14:32.432Z,5.33
2018-12-22T06:17:01.259Z,5.33
2018-12-22T06:19:30.038Z,3.05
2018-12-22T06:21:58.798Z,2.58
2018-12-22T06:24:27.561Z,2.07
2018-12-22T06:26:56.426Z,2.08
2018-12-22T06:29:25.191Z,1.65
2018-12-22T06:31:53.954Z,1.98
2018-12-22T06:34:22.795Z,1.65
2018-12-22T06:36:51.625Z,2.35
2018-12-22T06:39:20.383Z,1.80
2018-12-22T06:41:49.228Z,3.33
2018-12-22T06:44:17.974Z,2.58
2018-12-22T06:46:46.835Z,2.90
2018-12-22T06:49:15.598Z,5.30
2018-12-22T06:51:44.391Z,4.70
2018-12-22T06:54:13.181Z,4.58
2018-12-22T06:56:42.013Z,4.47
2018-12-22T06:59:10.830Z,4.20
2018-12-22T07:01:39.659Z,5.53
2018-12-22T07:04:08.534Z,5.87
2018-12-22T07:06:37.558Z,8.38
2018-12-22T07:09:07.290Z,9.15
2018-12-22T07:11:36.254Z,10.10
2018-12-22T07:14:05.114Z,8.53
2018-12-22T07:16:33.900Z,6.55
2018-12-22T07:19:02.685Z,8.60
2018-12-22T07:21:31.446Z,7.80
2018-12-22T07:24:00.278Z,7.07
2018-12-22T07:26:29.055Z,9.85
2018-12-22T07:28:57.864Z,10.93
2018-12-22T07:31:26.611Z,10.05
2018-12-22T07:33:55.413Z,10.88
2018-12-22T07:36:25.253Z,11.65
2018-12-22T07:38:54.339Z,8.90
2018-12-22T07:41:23.346Z,8.15
2018-12-22T07:43:52.114Z,9.03
2018-12-22T07:46:20.906Z,10.10
2018-12-22T07:48:49.718Z,9.80
2018-12-22T07:51:19.676Z,8.80
2018-12-22T07:53:48.512Z,11.12
2018-12-22T07:56:17.434Z,11.35
2018-12-22T07:58:46.221Z,13.00
2018-12-22T08:01:14.994Z,9.85
2018-12-22T08:03:43.954Z,11.85
2018-12-22T08:06:12.934Z,13.05
2018-12-22T08:08:41.889Z,13.25
2018-12-22T08:11:10.637Z,11.57
2018-12-22T08:13:39.435Z,10.70
2018-12-22T08:16:08.206Z,9.68
2018-12-22T08:18:36.979Z,9.98
2018-12-22T08:21:05.828Z,11.15
2018-12-22T08:23:34.585Z,11.90
2018-12-22T08:26:03.438Z,10.78
2018-12-22T08:28:32.230Z,11.22
2018-12-22T08:31:00.995Z,10.20
2018-12-22T08:33:29.754Z,8.90
2018-12-22T08:35:58.649Z,10.80
2018-12-22T08:38:27.495Z,9.48
2018-12-22T08:40:56.342Z,9.80
2018-12-22T08:43:25.154Z,8.13
2018-12-22T08:45:53.992Z,8.23
2018-12-22T08:48:22.762Z,8.53
2018-12-22T08:50:51.523Z,8.83
2018-12-22T08:53:20.374Z,6.53
2018-12-22T08:55:49.247Z,8.70
2018-12-22T08:58:18.023Z,6.67
2018-12-22T09:00:52.097Z,7.07
2018-12-22T09:03:17.566Z,8.15
2018-12-22T09:05:46.477Z,8.20
2018-12-22T09:08:15.263Z,7.22
2018-12-22T09:10:44.490Z,9.28
2018-12-22T09:13:20.652Z,8.57
2018-12-22T09:15:44.173Z,10.88
2018-12-22T09:18:13.073Z,8.23
2018-12-22T09:20:41.985Z,7.10
2018-12-22T09:23:10.751Z,7.00
2018-12-22T09:25:39.582Z,10.40
2018-12-22T09:28:08.406Z,7.60
2018-12-22T09:30:37.160Z,8.18
2018-12-22T09:33:05.990Z,7.20
2018-12-22T09:35:34.750Z,8.38
2018-12-22T09:38:03.610Z,6.33
2018-12-22T09:40:32.414Z,5.85
2018-12-22T09:43:01.302Z,10.60
2018-12-22T09:45:30.126Z,8.15
2018-12-22T09:47:58.886Z,7.53
2018-12-22T09:50:27.660Z,6.43
2018-12-22T09:52:56.465Z,7.92
2018-12-22T09:55:25.236Z,10.72
2018-12-22T09:57:54.139Z,9.63
2018-12-22T10:00:23.052Z,8.03
2018-12-22T10:02:52.014Z,10.55
2018-12-22T10:05:20.927Z,9.55
2018-12-22T10:07:49.785Z,9.95
2018-12-22T10:10:19.157Z,10.78
2018-12-22T10:12:48.031Z,8.80
2018-12-22T10:15:18.098Z,11.05
2018-12-22T10:17:47.890Z,10.38
2018-12-22T10:20:16.658Z,9.05
2018-12-22T10:22:45.419Z,9.28
2018-12-22T10:25:14.202Z,9.38
2018-12-22T10:27:43.006Z,11.33
2018-12-22T10:30:14.930Z,11.03
2018-12-22T10:32:43.806Z,12.53
2018-12-22T10:35:16.810Z,11.28
2018-12-22T10:37:45.663Z,10.20
2018-12-22T10:40:14.541Z,10.98
2018-12-22T10:42:43.301Z,8.67
2018-12-22T10:45:12.494Z,10.15
2018-12-22T10:47:41.239Z,9.00
2018-12-22T10:50:10.076Z,8.20
2018-12-22T10:52:39.836Z,10.93
2018-12-22T10:55:09.479Z,9.15
2018-12-22T10:57:39.517Z,10.32
2018-12-22T11:00:11.634Z,8.33
2018-12-22T11:02:40.539Z,9.43
2018-12-22T11:05:11.721Z,8.48
2018-12-22T11:07:40.594Z,8.55
2018-12-22T11:10:17.714Z,10.33
2018-12-22T11:12:46.491Z,12.43
2018-12-22T11:15:15.363Z,8.73
2018-12-22T11:17:44.310Z,9.33
2018-12-22T11:20:13.146Z,9.48
2018-12-22T11:22:41.914Z,9.30
2018-12-22T11:25:15.721Z,10.80
2018-12-22T11:27:44.507Z,9.35
2018-12-22T11:30:16.819Z,9.30
2018-12-22T11:32:45.602Z,11.75
2018-12-22T11:35:14.368Z,10.20
2018-12-22T11:37:44.266Z,9.25
2018-12-22T11:40:13.196Z,9.53
2018-12-22T11:42:47.538Z,7.55
2018-12-22T11:45:12.819Z,8.75
2018-12-22T11:47:45.773Z,8.53
2018-12-22T11:50:18.470Z,8.15
2018-12-22T11:52:47.229Z,10.58
2018-12-22T11:55:16.002Z,7.30
2018-12-22T11:57:44.765Z,7.85
2018-12-22T12:00:13.717Z,9.28
2018-12-22T12:02:42.578Z,9.93
2018-12-22T12:05:11.643Z,10.25
2018-12-22T12:07:40.442Z,11.53
2018-12-22T12:10:10.374Z,14.50
2018-12-22T12:12:39.166Z,12.73
2018-12-22T12:15:13.414Z,10.80
2018-12-22T12:17:54.155Z,12.03
2018-12-22T12:20:22.938Z,12.98
2018-12-22T12:22:51.799Z,12.50
2018-12-22T12:25:20.646Z,12.95
2018-12-22T12:27:49.422Z,13.10
2018-12-22T12:30:18.218Z,9.75
2018-12-22T12:32:46.978Z,14.87
2018-12-22T12:35:15.759Z,13.30
2018-12-22T12:37:44.531Z,15.32
2018-12-22T12:40:13.809Z,12.73
2018-12-22T12:42:42.606Z,15.18
2018-12-22T12:45:13.718Z,11.95
2018-12-22T12:47:43.553Z,15.25
2018-12-22T12:50:14.550Z,12.70
2018-12-22T12:52:43.328Z,14.07
2018-12-22T12:55:12.196Z,9.63
2018-12-22T12:57:40.980Z,13.78
2018-12-22T13:00:11.885Z,14.58
2018-12-22T13:02:40.676Z,12.98
2018-12-22T13:05:09.894Z,10.25
2018-12-22T13:07:39.575Z,23.85
2018-12-22T13:10:10.267Z,11.45
2018-12-22T13:12:48.627Z,10.25
2018-12-22T13:15:18.431Z,11.22
2018-12-22T13:22:55.750Z,11.83
2018-12-22T13:25:30.086Z,13.18
2018-12-22T13:27:59.610Z,13.03
2018-12-22T13:30:28.418Z,12.23
2018-12-22T13:32:57.193Z,12.10
2018-12-22T13:35:26.002Z,13.30
2018-12-22T13:37:54.765Z,15.85
2018-12-22T13:40:23.542Z,11.63
2018-12-22T13:42:52.309Z,12.35
2018-12-22T13:45:21.078Z,12.75
2018-12-22T13:47:52.179Z,14.87
2018-12-22T13:50:21.129Z,14.38
2018-12-22T13:52:49.960Z,10.72
2018-12-22T13:55:18.763Z,15.40
2018-12-22T13:57:47.553Z,15.65
2018-12-22T14:00:16.437Z,13.53
2018-12-22T14:02:45.334Z,12.45
2018-12-22T14:05:17.866Z,12.25
2018-12-22T14:07:46.730Z,14.03
2018-12-22T14:10:15.580Z,12.78
2018-12-22T14:12:44.378Z,14.10
2018-12-22T14:15:16.278Z,13.00
2018-12-22T14:18:00.049Z,14.80
2018-12-22T14:20:30.117Z,14.18
2018-12-22T14:22:58.910Z,10.35
2018-12-22T14:25:29.556Z,11.65
2018-12-22T14:27:58.347Z,13.20
2018-12-22T14:30:27.202Z,14.30
2018-12-22T14:32:56.067Z,11.48
2018-12-22T14:35:32.583Z,12.78
2018-12-22T14:38:01.348Z,11.55
2018-12-22T14:40:30.175Z,12.13
2018-12-22T14:42:59.042Z,12.10
2018-12-22T14:45:27.814Z,13.38
2018-12-22T14:47:56.733Z,14.68
2018-12-22T14:50:25.559Z,13.15
2018-12-22T14:52:54.311Z,13.58
2018-12-22T14:55:23.271Z,13.88
2018-12-22T14:57:56.005Z,15.35
2018-12-22T15:00:24.859Z,13.20
2018-12-22T15:02:53.702Z,15.45
2018-12-22T15:05:22.497Z,15.03
2018-12-22T15:07:51.302Z,13.70
2018-12-22T15:10:20.149Z,15.75
2018-12-22T15:12:49.018Z,14.53
2018-12-22T15:15:18.012Z,17.07
2018-12-22T15:17:46.782Z,16.52
2018-12-22T15:20:17.653Z,13.00
2018-12-22T15:22:46.546Z,16.25
2018-12-22T15:25:15.319Z,17.42
2018-12-22T15:27:44.145Z,16.37
2018-12-22T15:30:14.017Z,17.32
2018-12-22T15:32:44.447Z,14.35
2018-12-22T15:35:13.665Z,16.17
2018-12-22T15:37:42.526Z,18.33
2018-12-22T15:40:11.462Z,16.00
2018-12-22T15:42:40.310Z,16.37
2018-12-22T15:45:11.654Z,15.43
2018-12-22T15:47:41.370Z,13.70
2018-12-22T15:50:12.678Z,16.40
2018-12-22T15:52:41.630Z,17.12
2018-12-22T15:55:10.485Z,16.05
2018-12-22T15:57:39.361Z,14.63
2018-12-22T16:00:10.134Z,16.70
2018-12-22T16:02:38.985Z,15.13
2018-12-22T16:05:09.239Z,16.40
2018-12-22T16:07:38.148Z,18.57
2018-12-22T16:10:10.375Z,13.22
2018-12-22T16:12:39.237Z,15.57
2018-12-22T16:15:11.329Z,16.50
2018-12-22T16:17:40.213Z,14.95
2018-12-22T16:20:10.240Z,11.45
2018-12-22T16:22:40.394Z,13.20
2018-12-22T16:25:11.626Z,16.55
2018-12-22T16:27:40.132Z,10.50
2018-12-22T16:30:15.663Z,14.73
2018-12-22T16:32:44.426Z,13.62
2018-12-22T16:35:13.205Z,11.57
2018-12-22T16:37:42.056Z,15.05
2018-12-22T16:40:11.434Z,12.50
2018-12-22T16:42:40.304Z,14.58
2018-12-22T16:45:11.991Z,15.83
2018-12-22T16:47:40.914Z,15.60
2018-12-22T16:50:12.015Z,17.65
2018-12-22T16:52:40.897Z,21.45
2018-12-22T16:55:11.919Z,16.40
2018-12-22T16:57:43.766Z,14.53
2018-12-22T17:00:17.593Z,17.57
2018-12-22T17:02:53.552Z,16.03
2018-12-22T17:05:22.314Z,17.23
2018-12-22T17:07:51.194Z,17.05
2018-12-22T17:10:20.098Z,18.02
2018-12-22T17:12:48.966Z,17.57
2018-12-22T17:15:21.891Z,15.80
2018-12-22T17:17:48.667Z,18.03
2018-12-22T17:20:17.650Z,12.70
2018-12-22T17:23:42.595Z,14.75
2018-12-22T17:26:11.419Z,14.85
2018-12-22T17:28:40.198Z,18.98
2018-12-22T17:31:09.002Z,16.50
2018-12-22T17:33:38.941Z,16.32
2018-12-22T17:36:07.770Z,19.57
2018-12-22T17:38:36.642Z,15.13
2018-12-22T17:41:05.414Z,19.30
2018-12-22T17:43:34.740Z,16.43
2018-12-22T17:46:03.621Z,16.67
2018-12-22T17:48:32.399Z,16.42
2018-12-22T17:51:01.235Z,16.87
2018-12-22T17:53:30.004Z,16.02
2018-12-22T17:55:58.772Z,16.80
2018-12-22T17:58:27.569Z,15.30
2018-12-22T18:00:56.390Z,17.57
2018-12-22T18:03:29.213Z,18.75
2018-12-22T18:05:58.091Z,18.82
2018-12-22T18:08:26.851Z,17.75
2018-12-22T18:10:55.618Z,15.70
2018-12-22T18:13:24.415Z,16.80
2018-12-22T18:15:53.194Z,15.63
2018-12-22T18:18:22.022Z,19.48
2018-12-22T18:20:50.795Z,16.47
2018-12-22T18:23:19.567Z,19.55
2018-12-22T18:25:48.402Z,14.58
2018-12-22T18:28:17.168Z,18.57
2018-12-22T18:30:46.215Z,17.53
2018-12-22T18:33:14.934Z,20.17
2018-12-22T18:35:43.733Z,18.73
2018-12-22T18:38:12.478Z,17.85
2018-12-22T18:40:41.417Z,19.12
2018-12-22T18:43:10.273Z,21.03
2018-12-22T18:45:39.050Z,18.15
2018-12-22T18:48:07.836Z,21.00
2018-12-22T18:50:36.605Z,17.15
2018-12-22T18:53:05.567Z,17.27
2018-12-22T18:55:34.337Z,18.33
2018-12-22T18:58:04.583Z,23.87
2018-12-22T19:00:33.463Z,23.18
2018-12-22T19:03:02.239Z,16.15
2018-12-22T19:05:31.006Z,16.30
2018-12-22T19:08:03.673Z,15.95
2018-12-22T19:10:38.067Z,17.27
2018-12-22T19:13:06.903Z,19.65
2018-12-22T19:15:35.689Z,17.47
2018-12-22T19:18:04.578Z,20.97
2018-12-22T19:20:40.195Z,21.50
2018-12-22T19:23:10.675Z,23.07
2018-12-22T19:25:39.442Z,24.43
2018-12-22T19:28:08.226Z,21.55
2018-12-22T19:30:37.022Z,15.47
2018-12-22T19:33:05.802Z,21.95
2018-12-22T19:35:34.622Z,21.68
2018-12-22T19:38:03.436Z,21.93
2018-12-22T19:40:32.226Z,19.02
2018-12-22T19:43:01.019Z,23.15
2018-12-22T19:45:29.798Z,17.52
2018-12-22T19:47:58.562Z,21.15
2018-12-22T19:50:27.343Z,22.62
2018-12-22T19:52:56.149Z,19.53
2018-12-22T19:55:24.902Z,20.00
2018-12-22T19:57:53.713Z,19.27
2018-12-22T20:00:23.565Z,24.18
2018-12-22T20:02:52.330Z,22.37
2018-12-22T20:05:21.182Z,23.15
2018-12-22T20:07:50.057Z,19.90
2018-12-22T20:10:18.915Z,21.30
2018-12-22T20:12:47.710Z,23.62
2018-12-22T20:15:16.508Z,21.05
2018-12-22T20:17:45.463Z,20.37
2018-12-22T20:20:14.454Z,20.60
2018-12-22T20:22:43.211Z,24.55
2018-12-22T20:25:12.010Z,20.20
2018-12-22T20:27:40.903Z,21.27
2018-12-22T20:30:09.751Z,19.27
2018-12-22T20:32:38.566Z,25.48
2018-12-22T20:35:07.435Z,19.07
2018-12-22T20:37:36.346Z,21.60
2018-12-22T20:40:06.158Z,22.77
2018-12-22T20:42:34.926Z,22.87
2018-12-22T20:45:03.909Z,23.70
2018-12-22T20:47:32.674Z,20.93
2018-12-22T20:50:01.439Z,21.93
2018-12-22T20:52:30.319Z,21.70
2018-12-22T20:54:59.071Z,22.75
2018-12-22T20:57:27.866Z,21.80
2018-12-22T20:59:56.623Z,21.25
2018-12-22T21:02:25.410Z,22.58
2018-12-22T21:04:54.504Z,22.17
2018-12-22T21:07:23.286Z,21.57
2018-12-22T21:09:52.231Z,23.73
2018-12-22T21:12:21.246Z,23.87
2018-12-22T21:14:50.225Z,24.23
2018-12-22T21:17:19.009Z,21.35
2018-12-22T21:19:47.759Z,22.85
2018-12-22T21:22:16.548Z,22.37
2018-12-22T21:24:45.357Z,17.60
2018-12-22T21:27:14.139Z,17.80
2018-12-22T21:29:42.919Z,21.10
2018-12-22T21:32:11.706Z,18.42
2018-12-22T21:34:40.495Z,20.00
2018-12-22T21:37:09.277Z,22.42
2018-12-22T21:39:38.107Z,20.67
2018-12-22T21:42:07.250Z,18.90
2018-12-22T21:44:36.033Z,19.47
2018-12-22T21:47:04.818Z,19.15
2018-12-22T21:49:33.614Z,21.25
2018-12-22T21:52:02.591Z,19.82
2018-12-22T21:54:31.460Z,16.70
2018-12-22T21:57:00.403Z,21.50
2018-12-22T21:59:29.198Z,21.47
2018-12-22T22:01:57.958Z,20.97
2018-12-22T22:04:26.776Z,25.55
2018-12-22T22:07:00.303Z,19.23
2018-12-22T22:09:29.180Z,20.97
2018-12-22T22:11:58.034Z,19.60
2018-12-22T22:14:27.465Z,22.87
2018-12-22T22:16:56.302Z,20.23
2018-12-22T22:19:25.184Z,25.75
2018-12-22T22:21:54.036Z,24.02
2018-12-22T22:24:22.816Z,22.22
2018-12-22T22:26:51.758Z,19.80
2018-12-22T22:29:22.270Z,23.80
2018-12-22T22:31:51.077Z,24.05
2018-12-22T22:34:20.158Z,21.33
2018-12-22T22:36:48.962Z,23.05
2018-12-22T22:39:17.970Z,21.60
2018-12-22T22:41:46.869Z,22.93
2018-12-22T22:44:15.767Z,25.65
2018-12-22T22:46:44.697Z,19.33
2018-12-22T22:49:13.739Z,23.27
2018-12-22T22:51:42.713Z,26.48
2018-12-22T22:54:11.478Z,21.23
2018-12-22T22:56:40.255Z,21.33
2018-12-22T22:59:09.119Z,24.52
2018-12-22T23:01:37.895Z,22.45
2018-12-22T23:04:06.666Z,25.57
2018-12-22T23:06:35.426Z,26.55
2018-12-22T23:09:06.320Z,21.57
2018-12-22T23:11:35.235Z,23.45
2018-12-22T23:14:04.323Z,26.30
2018-12-22T23:16:33.089Z,27.30
2018-12-22T23:19:01.871Z,24.90
2018-12-22T23:21:30.699Z,23.10
2018-12-22T23:23:59.511Z,22.85
2018-12-22T23:26:29.346Z,23.18
2018-12-22T23:28:58.223Z,23.15
2018-12-22T23:31:27.054Z,26.25
2018-12-22T23:33:55.837Z,24.47
2018-12-22T23:36:24.639Z,23.07
2018-12-22T23:38:53.405Z,26.50
2018-12-22T23:41:22.322Z,22.50
2018-12-22T23:43:51.080Z,21.90
2018-12-22T23:46:19.858Z,23.85
2018-12-22T23:48:48.638Z,21.02
2018-12-22T23:51:17.499Z,26.82
2018-12-22T23:53:46.299Z,27.30
2018-12-22T23:56:15.077Z,25.25
2018-12-22T23:58:43.894Z,23.77
